createdAt,value
2022-08-17T00:01:52.595Z,8.82
2022-08-17T00:04:23.002Z,10.23
2022-08-17T00:06:53.360Z,12.65
2022-08-17T00:09:22.119Z,11.90
2022-08-17T00:12:41.114Z,10.77
2022-08-17T00:14:39.985Z,11.50
2022-08-17T00:17:09.849Z,10.48
2022-08-17T00:19:39.047Z,9.88
2022-08-17T00:22:34.789Z,9.00
2022-08-17T00:24:56.617Z,10.15
2022-08-17T00:27:25.093Z,9.73
2022-08-17T00:29:54.031Z,9.02
2022-08-17T00:33:13.740Z,9.43
2022-08-17T00:35:13.653Z,11.18
2022-08-17T00:37:42.336Z,9.65
2022-08-17T00:40:11.829Z,9.05
2022-08-17T00:42:40.400Z,9.27
2022-08-17T00:45:11.760Z,8.68
2022-08-17T00:47:41.668Z,8.73
2022-08-17T00:50:12.135Z,9.07
2022-08-17T00:52:44.182Z,9.30
2022-08-17T00:55:12.835Z,8.90
2022-08-17T00:57:44.507Z,9.88
2022-08-17T01:00:14.692Z,7.82
2022-08-17T01:02:45.791Z,8.00
2022-08-17T01:05:16.573Z,8.50
2022-08-17T01:07:48.388Z,7.72
2022-08-17T01:10:58.269Z,7.93
2022-08-17T01:13:07.090Z,7.13
2022-08-17T01:15:37.486Z,7.72
2022-08-17T01:18:09.524Z,7.35
2022-08-17T01:20:47.915Z,8.13
2022-08-17T01:23:20.919Z,7.90
2022-08-17T01:25:51.486Z,9.15
2022-08-17T01:28:33.638Z,8.10
2022-08-17T01:31:10.260Z,8.15
2022-08-17T01:33:39.264Z,7.82
2022-08-17T01:36:09.058Z,7.95
2022-08-17T01:38:39.691Z,7.53
2022-08-17T01:41:10.637Z,7.32
2022-08-17T01:43:41.764Z,7.43
2022-08-17T01:46:11.063Z,8.00
2022-08-17T01:48:40.188Z,7.57
2022-08-17T01:51:09.364Z,7.50
2022-08-17T01:53:41.340Z,7.65
2022-08-17T01:56:11.149Z,7.90
2022-08-17T01:58:40.602Z,7.45
2022-08-17T02:01:10.097Z,7.97
2022-08-17T02:03:38.940Z,7.78
2022-08-17T02:06:27.270Z,8.10
2022-08-17T02:09:03.296Z,8.20
2022-08-17T02:11:33.009Z,8.30
2022-08-17T02:14:03.114Z,7.75
2022-08-17T02:16:37.021Z,8.63
2022-08-17T02:19:06.723Z,7.75
2022-08-17T02:21:35.316Z,8.18
2022-08-17T02:24:06.302Z,8.05
2022-08-17T02:26:34.843Z,8.32
2022-08-17T02:29:04.155Z,8.90
2022-08-17T02:31:32.991Z,8.38
2022-08-17T02:34:04.482Z,7.97
2022-08-17T02:36:33.928Z,8.05
2022-08-17T02:39:02.741Z,8.63
2022-08-17T02:41:32.647Z,8.82
2022-08-17T02:44:01.220Z,8.40
2022-08-17T02:46:31.118Z,8.57
2022-08-17T02:48:59.908Z,8.65
2022-08-17T02:51:28.515Z,8.27
2022-08-17T02:54:35.747Z,9.02
2022-08-17T02:56:47.087Z,9.27
2022-08-17T02:59:15.598Z,8.77
2022-08-17T03:01:44.135Z,8.70
2022-08-17T03:04:12.729Z,8.48
2022-08-17T03:06:41.194Z,8.57
2022-08-17T03:09:09.860Z,9.38
2022-08-17T03:11:38.521Z,8.20
2022-08-17T03:14:08.347Z,8.57
2022-08-17T03:16:36.864Z,9.05
2022-08-17T03:19:05.511Z,9.27
2022-08-17T03:21:34.044Z,9.05
2022-08-17T03:24:02.554Z,9.18
2022-08-17T03:26:37.609Z,10.63
2022-08-17T03:29:06.091Z,10.05
2022-08-17T03:31:37.090Z,10.32
2022-08-17T03:34:06.667Z,9.88
2022-08-17T03:36:36.021Z,8.90
2022-08-17T03:39:04.751Z,8.85
2022-08-17T03:41:33.264Z,9.23
2022-08-17T03:44:01.747Z,10.13
2022-08-17T03:46:47.758Z,9.55
2022-08-17T03:49:35.308Z,9.73
2022-08-17T03:52:21.586Z,8.70
2022-08-17T03:55:07.684Z,9.05
2022-08-17T03:57:36.878Z,9.38
2022-08-17T04:00:06.309Z,9.60
2022-08-17T04:02:35.524Z,9.80
2022-08-17T04:05:05.710Z,9.27
2022-08-17T04:07:34.219Z,9.13
2022-08-17T04:10:02.811Z,9.45
2022-08-17T04:12:44.046Z,9.00
2022-08-17T04:15:13.471Z,9.00
2022-08-17T04:17:44.240Z,9.68
2022-08-17T04:20:15.111Z,8.63
2022-08-17T04:22:57.327Z,9.10
2022-08-17T04:25:27.380Z,9.00
2022-08-17T04:27:55.954Z,8.98
2022-08-17T04:30:24.792Z,9.98
2022-08-17T04:33:10.557Z,8.00
2022-08-17T04:35:41.445Z,9.50
2022-08-17T04:38:11.112Z,8.75
2022-08-17T04:40:57.132Z,8.48
2022-08-17T04:43:26.398Z,8.93
2022-08-17T04:45:57.050Z,8.73
2022-08-17T04:48:29.715Z,9.73
2022-08-17T04:51:06.935Z,9.27
2022-08-17T04:53:35.493Z,8.77
2022-08-17T04:56:04.038Z,9.27
2022-08-17T04:58:32.769Z,9.63
2022-08-17T05:01:01.762Z,9.18
2022-08-17T05:03:30.335Z,9.23
2022-08-17T05:05:58.778Z,9.20
2022-08-17T05:08:28.752Z,10.07
2022-08-17T05:10:57.265Z,8.60
2022-08-17T05:13:27.307Z,8.20
2022-08-17T05:15:56.728Z,9.00
2022-08-17T05:18:25.446Z,9.88
2022-08-17T05:20:54.252Z,8.68
2022-08-17T05:23:24.311Z,8.30
2022-08-17T05:25:56.358Z,9.80
2022-08-17T05:28:27.605Z,8.35
2022-08-17T05:30:58.934Z,9.45
2022-08-17T05:33:29.227Z,8.68
2022-08-17T05:35:58.878Z,9.73
2022-08-17T05:38:28.792Z,9.90
2022-08-17T05:40:59.208Z,8.93
2022-08-17T05:43:29.246Z,8.95
2022-08-17T05:46:02.595Z,9.57
2022-08-17T05:48:36.791Z,10.15
2022-08-17T05:51:23.950Z,10.23
2022-08-17T05:53:57.879Z,9.45
2022-08-17T05:56:34.240Z,9.07
2022-08-17T05:59:06.858Z,9.32
2022-08-17T06:01:37.370Z,8.77
2022-08-17T06:04:09.746Z,8.18
2022-08-17T06:06:42.104Z,9.18
2022-08-17T06:09:26.611Z,8.38
2022-08-17T06:12:04.773Z,9.80
2022-08-17T06:14:42.555Z,9.40
2022-08-17T06:17:13.385Z,8.70
2022-08-17T06:19:43.266Z,9.43
2022-08-17T06:22:13.513Z,8.35
2022-08-17T06:24:44.255Z,9.10
2022-08-17T06:27:18.490Z,9.13
2022-08-17T06:29:54.384Z,8.90
2022-08-17T06:32:23.259Z,8.70
2022-08-17T06:34:51.563Z,8.63
2022-08-17T06:37:48.972Z,9.43
2022-08-17T06:40:33.618Z,9.70
2022-08-17T06:43:15.675Z,9.07
2022-08-17T06:45:49.562Z,10.07
2022-08-17T06:48:25.651Z,10.20
2022-08-17T06:50:59.934Z,10.15
2022-08-17T06:53:33.105Z,10.05
2022-08-17T06:56:06.008Z,9.70
2022-08-17T06:58:40.107Z,9.40
2022-08-17T07:01:12.447Z,9.55
2022-08-17T07:03:47.687Z,9.63
2022-08-17T07:06:18.393Z,9.40
2022-08-17T07:08:54.159Z,10.40
2022-08-17T07:11:28.478Z,10.57
2022-08-17T07:14:05.520Z,10.00
2022-08-17T07:16:39.760Z,11.13
2022-08-17T07:19:10.984Z,11.07
2022-08-17T07:21:50.261Z,10.48
2022-08-17T07:24:35.817Z,11.13
2022-08-17T07:27:14.244Z,11.48
2022-08-17T07:29:50.999Z,11.23
2022-08-17T07:32:25.111Z,10.82
2022-08-17T07:35:11.458Z,11.80
2022-08-17T07:37:42.420Z,11.35
2022-08-17T07:40:27.119Z,11.38
2022-08-17T07:43:07.323Z,11.13
2022-08-17T07:46:15.705Z,12.13
2022-08-17T07:48:46.442Z,12.18
2022-08-17T07:51:19.068Z,12.07
2022-08-17T07:53:48.453Z,12.05
2022-08-17T07:56:36.324Z,12.35
2022-08-17T07:59:10.169Z,12.30
2022-08-17T08:01:41.693Z,11.45
2022-08-17T08:04:59.007Z,11.68
2022-08-17T08:07:27.111Z,12.07
2022-08-17T08:10:05.342Z,11.60
2022-08-17T08:12:36.211Z,11.73
2022-08-17T08:15:11.007Z,11.13
2022-08-17T08:17:52.061Z,11.57
2022-08-17T08:20:52.763Z,11.05
2022-08-17T08:23:25.762Z,11.05
2022-08-17T08:26:12.360Z,11.73
2022-08-17T08:28:52.546Z,11.20
2022-08-17T08:31:33.461Z,11.02
2022-08-17T08:34:44.585Z,11.48
2022-08-17T08:37:19.142Z,11.10
2022-08-17T08:39:59.511Z,10.45
2022-08-17T08:42:36.663Z,10.73
2022-08-17T08:45:13.783Z,11.07
2022-08-17T08:47:58.850Z,11.65
2022-08-17T08:50:47.667Z,22.33
2022-08-17T08:53:27.405Z,13.13
2022-08-17T08:56:06.056Z,10.82
2022-08-17T08:58:43.612Z,11.38
2022-08-17T09:01:22.107Z,11.57
2022-08-17T09:04:25.026Z,11.98
2022-08-17T09:07:00.433Z,10.77
2022-08-17T09:09:35.643Z,11.95
2022-08-17T09:12:07.349Z,11.93
2022-08-17T09:14:46.481Z,11.25
2022-08-17T09:17:18.484Z,11.45
2022-08-17T09:19:50.512Z,11.52
2022-08-17T09:22:31.540Z,11.40
2022-08-17T09:25:06.534Z,11.48
2022-08-17T09:27:37.453Z,10.90
2022-08-17T09:30:08.968Z,10.32
2022-08-17T09:32:41.009Z,10.90
2022-08-17T09:35:14.530Z,11.05
2022-08-17T09:37:49.891Z,10.20
2022-08-17T09:40:20.984Z,10.63
2022-08-17T09:42:51.729Z,10.23
2022-08-17T09:45:29.749Z,10.30
2022-08-17T09:48:01.393Z,9.77
2022-08-17T09:51:03.118Z,10.05
2022-08-17T09:53:23.960Z,10.40
2022-08-17T09:55:58.000Z,10.32
2022-08-17T09:58:29.450Z,10.35
2022-08-17T10:01:03.669Z,10.77
2022-08-17T10:03:41.786Z,11.57
2022-08-17T10:06:21.264Z,11.50
2022-08-17T10:08:57.376Z,10.70
2022-08-17T10:11:52.736Z,10.75
2022-08-17T10:14:36.364Z,9.65
2022-08-17T10:17:14.629Z,10.20
2022-08-17T10:19:47.801Z,10.57
2022-08-17T10:22:39.677Z,10.55
2022-08-17T10:25:48.580Z,9.65
2022-08-17T10:28:20.031Z,10.05
2022-08-17T10:30:51.687Z,10.15
2022-08-17T10:33:23.973Z,10.15
2022-08-17T10:35:57.047Z,10.20
2022-08-17T10:38:30.387Z,10.10
2022-08-17T10:41:03.392Z,9.10
2022-08-17T10:44:36.748Z,9.70
2022-08-17T10:46:46.992Z,9.48
2022-08-17T10:49:24.250Z,9.75
2022-08-17T10:51:54.498Z,9.93
2022-08-17T10:54:36.779Z,10.73
2022-08-17T10:57:24.993Z,10.05
2022-08-17T10:59:54.521Z,10.18
2022-08-17T11:02:28.223Z,9.80
2022-08-17T11:05:03.028Z,9.75
2022-08-17T11:07:43.880Z,10.63
2022-08-17T11:10:27.603Z,9.60
2022-08-17T11:13:02.918Z,10.75
2022-08-17T11:15:42.234Z,9.60
2022-08-17T11:18:20.686Z,9.77
2022-08-17T11:21:13.402Z,9.15
2022-08-17T11:23:53.492Z,9.27
2022-08-17T11:26:26.235Z,7.78
2022-08-17T11:29:00.176Z,8.27
2022-08-17T11:31:39.321Z,8.05
2022-08-17T11:34:14.676Z,8.50
2022-08-17T11:36:56.069Z,9.80
2022-08-17T11:39:42.536Z,9.95
2022-08-17T11:42:20.025Z,10.35
2022-08-17T11:44:53.205Z,9.77
2022-08-17T11:47:40.867Z,10.50
2022-08-17T11:50:37.614Z,9.30
2022-08-17T11:53:06.550Z,9.40
2022-08-17T11:55:53.591Z,9.32
2022-08-17T11:58:37.508Z,9.32
2022-08-17T12:01:08.303Z,9.32
2022-08-17T12:03:55.259Z,9.35
2022-08-17T12:06:43.215Z,9.77
2022-08-17T12:09:14.437Z,9.93
2022-08-17T12:11:55.185Z,11.10
2022-08-17T12:15:09.546Z,11.25
2022-08-17T12:17:40.118Z,10.15
2022-08-17T12:20:14.626Z,9.57
2022-08-17T12:22:47.161Z,9.23
2022-08-17T12:25:17.515Z,9.00
2022-08-17T12:28:06.504Z,8.85
2022-08-17T12:30:36.521Z,9.65
2022-08-17T12:33:13.417Z,8.70
2022-08-17T12:35:59.715Z,8.32
2022-08-17T12:38:33.274Z,9.48
2022-08-17T12:41:23.457Z,9.13
2022-08-17T12:44:02.294Z,8.30
2022-08-17T12:46:33.562Z,9.13
2022-08-17T12:49:23.891Z,9.27
2022-08-17T12:51:55.688Z,9.15
2022-08-17T12:54:27.496Z,9.23
2022-08-17T12:56:56.117Z,9.02
2022-08-17T12:59:29.787Z,9.18
2022-08-17T13:01:59.282Z,8.93
2022-08-17T13:04:29.564Z,9.45
2022-08-17T13:06:59.917Z,8.80
2022-08-17T13:09:35.941Z,8.77
2022-08-17T13:12:09.305Z,8.23
2022-08-17T13:14:37.910Z,9.02
2022-08-17T13:17:12.685Z,8.90
2022-08-17T13:19:49.265Z,8.95
2022-08-17T13:22:23.073Z,8.95
2022-08-17T13:24:54.550Z,9.32
2022-08-17T13:27:24.287Z,9.20
2022-08-17T13:29:55.845Z,8.38
2022-08-17T13:32:33.677Z,9.27
2022-08-17T13:35:15.572Z,9.23
2022-08-17T13:37:58.830Z,9.45
2022-08-17T13:40:29.185Z,8.73
2022-08-17T13:42:57.997Z,8.75
2022-08-17T13:45:53.457Z,8.80
2022-08-17T13:48:23.906Z,8.93
2022-08-17T13:51:05.716Z,9.13
2022-08-17T13:53:50.516Z,9.77
2022-08-17T13:56:33.548Z,8.80
2022-08-17T13:59:08.122Z,9.05
2022-08-17T14:01:38.383Z,8.75
2022-08-17T14:04:08.584Z,9.02
2022-08-17T14:06:52.414Z,8.30
2022-08-17T14:09:24.855Z,8.43
2022-08-17T14:11:54.106Z,7.95
2022-08-17T14:14:23.858Z,8.65
2022-08-17T14:16:52.332Z,9.20
2022-08-17T14:19:21.922Z,8.98
2022-08-17T14:21:50.901Z,9.23
2022-08-17T14:24:24.465Z,9.02
2022-08-17T14:26:53.514Z,8.48
2022-08-17T14:29:22.799Z,9.13
2022-08-17T14:31:54.149Z,8.73
2022-08-17T14:34:23.961Z,9.50
2022-08-17T14:36:53.061Z,9.75
2022-08-17T14:39:23.137Z,9.23
2022-08-17T14:41:53.037Z,8.73
2022-08-17T14:44:21.615Z,8.65
2022-08-17T14:46:50.610Z,8.65
2022-08-17T14:49:20.690Z,9.07
2022-08-17T14:51:49.568Z,8.57
2022-08-17T14:54:33.147Z,7.93
2022-08-17T14:57:24.658Z,9.18
2022-08-17T14:59:55.080Z,8.73
2022-08-17T15:02:29.833Z,8.70
2022-08-17T15:05:00.615Z,9.32
2022-08-17T15:07:30.337Z,8.73
2022-08-17T15:10:00.497Z,9.93
2022-08-17T15:12:34.108Z,9.10
2022-08-17T15:15:04.709Z,9.25
2022-08-17T15:17:54.740Z,8.23
2022-08-17T15:20:24.854Z,8.60
2022-08-17T15:22:55.349Z,9.18
2022-08-17T15:25:24.504Z,8.95
2022-08-17T15:27:55.571Z,10.10
2022-08-17T15:30:24.097Z,9.73
2022-08-17T15:32:55.268Z,9.38
2022-08-17T15:35:27.244Z,9.13
2022-08-17T15:37:56.205Z,9.00
2022-08-17T15:40:25.120Z,9.35
2022-08-17T15:42:55.099Z,8.63
2022-08-17T15:45:28.359Z,8.90
2022-08-17T15:47:56.919Z,8.43
2022-08-17T15:50:25.393Z,8.32
2022-08-17T15:52:58.632Z,7.65
2022-08-17T15:55:29.929Z,7.72
2022-08-17T15:57:59.856Z,8.13
2022-08-17T16:00:29.511Z,8.10
2022-08-17T16:03:45.011Z,8.13
2022-08-17T16:05:50.231Z,7.93
2022-08-17T16:08:21.322Z,8.63
2022-08-17T16:10:50.186Z,8.38
2022-08-17T16:13:20.772Z,8.55
2022-08-17T16:15:56.993Z,8.68
2022-08-17T16:18:28.332Z,8.00
2022-08-17T16:20:57.127Z,8.55
2022-08-17T16:23:25.822Z,9.05
2022-08-17T16:25:54.629Z,9.13
2022-08-17T16:28:29.880Z,8.70
2022-08-17T16:31:05.911Z,9.18
2022-08-17T16:33:37.732Z,9.40
2022-08-17T16:36:07.324Z,8.48
2022-08-17T16:38:35.853Z,8.98
2022-08-17T16:41:05.079Z,9.10
2022-08-17T16:43:35.065Z,8.70
2022-08-17T16:46:03.620Z,9.43
2022-08-17T16:48:32.167Z,9.27
2022-08-17T16:51:04.276Z,9.30
2022-08-17T16:53:33.160Z,9.52
2022-08-17T16:56:01.665Z,9.23
2022-08-17T16:58:30.193Z,9.30
2022-08-17T17:01:00.102Z,9.00
2022-08-17T17:03:30.249Z,8.32
2022-08-17T17:06:10.207Z,8.38
2022-08-17T17:08:46.778Z,8.13
2022-08-17T17:11:18.318Z,7.70
2022-08-17T17:13:54.190Z,7.93
2022-08-17T17:16:33.020Z,8.40
2022-08-17T17:19:10.386Z,8.27
2022-08-17T17:21:56.016Z,8.73
2022-08-17T17:24:32.088Z,8.18
2022-08-17T17:27:17.661Z,9.00
2022-08-17T17:30:03.194Z,8.43
2022-08-17T17:32:39.020Z,7.47
2022-08-17T17:35:13.002Z,8.40
2022-08-17T17:37:43.965Z,9.18
2022-08-17T17:40:19.154Z,8.85
2022-08-17T17:42:49.456Z,9.30
2022-08-17T17:45:23.392Z,9.52
2022-08-17T17:47:53.781Z,9.07
2022-08-17T17:50:30.698Z,9.32
2022-08-17T17:53:04.784Z,9.77
2022-08-17T17:55:45.276Z,8.75
2022-08-17T17:58:20.439Z,8.60
2022-08-17T18:00:52.447Z,8.82
2022-08-17T18:03:27.184Z,8.82
2022-08-17T18:06:10.443Z,8.27
2022-08-17T18:08:45.690Z,8.77
2022-08-17T18:11:24.015Z,7.78
2022-08-17T18:13:58.859Z,7.65
2022-08-17T18:16:29.777Z,8.52
2022-08-17T18:19:02.330Z,9.20
2022-08-17T18:21:34.679Z,8.82
2022-08-17T18:24:04.509Z,9.80
2022-08-17T18:26:45.141Z,10.82
2022-08-17T18:29:15.661Z,12.48
2022-08-17T18:31:44.147Z,12.63
2022-08-17T18:34:46.036Z,13.15
2022-08-17T18:37:16.080Z,12.52
2022-08-17T18:39:48.034Z,12.77
2022-08-17T18:42:26.621Z,11.80
2022-08-17T18:44:56.106Z,12.80
2022-08-17T18:47:25.592Z,11.77
2022-08-17T18:49:58.288Z,11.98
2022-08-17T18:52:28.016Z,13.52
2022-08-17T18:55:04.432Z,11.80
2022-08-17T18:57:36.533Z,12.25
2022-08-17T19:00:12.605Z,11.25
2022-08-17T19:02:51.482Z,11.05
2022-08-17T19:05:32.861Z,10.38
2022-08-17T19:08:16.401Z,10.25
2022-08-17T19:10:47.264Z,10.60
2022-08-17T19:13:23.852Z,11.32
2022-08-17T19:16:12.148Z,10.77
2022-08-17T19:18:45.671Z,11.27
2022-08-17T19:21:17.841Z,11.93
2022-08-17T19:23:54.233Z,12.18
2022-08-17T19:26:53.928Z,12.40
2022-08-17T19:29:16.258Z,17.83
2022-08-17T19:31:48.217Z,19.15
2022-08-17T19:34:33.341Z,21.23
2022-08-17T19:37:09.069Z,20.55
2022-08-17T19:39:42.215Z,19.25
2022-08-17T19:42:12.636Z,18.05
2022-08-17T19:44:47.202Z,18.70
2022-08-17T19:47:30.735Z,18.38
2022-08-17T19:50:10.836Z,19.65
2022-08-17T19:52:52.848Z,21.35
2022-08-17T19:55:31.510Z,19.05
2022-08-17T19:58:04.448Z,18.42
2022-08-17T20:00:33.680Z,19.20
2022-08-17T20:03:06.583Z,21.05
2022-08-17T20:06:08.481Z,22.25
2022-08-17T20:08:31.232Z,21.23
2022-08-17T20:11:01.378Z,21.45
2022-08-17T20:13:32.917Z,19.95
2022-08-17T20:16:02.781Z,19.63
2022-08-17T20:18:47.879Z,17.52
2022-08-17T20:21:19.997Z,16.75
2022-08-17T20:23:54.333Z,15.73
2022-08-17T20:26:26.435Z,15.43
2022-08-17T20:29:09.187Z,14.25
2022-08-17T20:31:42.438Z,13.90
2022-08-17T20:34:36.895Z,16.52
2022-08-17T20:37:08.780Z,14.00
2022-08-17T20:39:41.410Z,13.30
2022-08-17T20:42:12.604Z,13.45
2022-08-17T20:44:42.170Z,12.70
2022-08-17T20:47:13.867Z,13.07
2022-08-17T20:49:49.480Z,11.73
2022-08-17T20:52:38.564Z,12.88
2022-08-17T20:55:09.508Z,11.38
2022-08-17T20:57:47.461Z,12.55
2022-08-17T21:00:41.578Z,12.57
2022-08-17T21:03:40.013Z,11.73
2022-08-17T21:06:18.771Z,11.13
2022-08-17T21:08:53.758Z,12.07
2022-08-17T21:12:02.612Z,11.73
2022-08-17T21:14:39.495Z,11.82
2022-08-17T21:17:17.201Z,12.23
2022-08-17T21:20:10.353Z,11.65
2022-08-17T21:22:48.675Z,12.45
2022-08-17T21:25:25.615Z,12.13
2022-08-17T21:28:01.539Z,12.30
2022-08-17T21:30:48.129Z,12.93
2022-08-17T21:33:20.257Z,12.40
2022-08-17T21:35:52.273Z,12.63
2022-08-17T21:38:22.483Z,12.68
2022-08-17T21:40:52.829Z,12.90
2022-08-17T21:43:32.443Z,12.10
2022-08-17T21:46:02.772Z,12.52
2022-08-17T21:48:32.413Z,12.18
2022-08-17T21:51:03.765Z,12.38
2022-08-17T21:53:36.948Z,11.65
2022-08-17T21:56:06.321Z,12.50
2022-08-17T21:58:39.211Z,11.77
2022-08-17T22:01:13.334Z,12.07
2022-08-17T22:03:42.750Z,12.00
2022-08-17T22:06:21.100Z,10.85
2022-08-17T22:08:59.824Z,11.32
2022-08-17T22:11:28.527Z,12.32
2022-08-17T22:14:00.679Z,11.68
2022-08-17T22:16:34.914Z,11.02
2022-08-17T22:19:03.872Z,11.50
2022-08-17T22:21:32.375Z,12.20
2022-08-17T22:24:04.469Z,11.57
2022-08-17T22:26:48.029Z,13.23
2022-08-17T22:29:31.736Z,14.85
2022-08-17T22:32:01.628Z,15.75
2022-08-17T22:34:30.124Z,14.43
2022-08-17T22:37:13.443Z,13.40
2022-08-17T22:39:42.161Z,18.73
2022-08-17T22:42:15.607Z,20.05
2022-08-17T22:44:48.649Z,22.15
2022-08-17T22:47:30.550Z,20.98
2022-08-17T22:50:00.729Z,18.85
2022-08-17T22:52:34.330Z,16.60
2022-08-17T22:55:21.827Z,16.25
2022-08-17T22:58:08.168Z,16.20
2022-08-17T23:00:38.794Z,16.92
2022-08-17T23:03:19.718Z,14.32
2022-08-17T23:05:49.088Z,14.20
2022-08-17T23:08:21.445Z,14.23
2022-08-17T23:10:50.433Z,14.15
2022-08-17T23:13:21.355Z,14.50
2022-08-17T23:15:50.429Z,15.07
2022-08-17T23:18:20.499Z,15.82
2022-08-17T23:20:49.029Z,13.90
2022-08-17T23:23:23.455Z,13.10
2022-08-17T23:25:52.255Z,14.68
2022-08-17T23:28:21.904Z,16.25
2022-08-17T23:30:50.438Z,14.20
2022-08-17T23:33:27.706Z,15.32
2022-08-17T23:35:56.228Z,16.83
2022-08-17T23:38:27.342Z,17.02
2022-08-17T23:40:56.064Z,19.38
2022-08-17T23:43:25.623Z,16.55
2022-08-17T23:45:57.716Z,17.95
2022-08-17T23:48:36.557Z,19.23
2022-08-17T23:51:09.093Z,15.35
2022-08-17T23:53:41.926Z,18.50
2022-08-17T23:56:11.864Z,14.23
2022-08-17T23:58:43.136Z,16.52
